Timbiras, Brazil
Current Conditions -  °F | °C
As of 2:00 PM on Friday 28 Nov 2014 (Local Time) from SBTE Reporting Station
Scattered Clouds Scattered Clouds  
Wind Chill: 97°   Ceiling: Unl
Heat Index: 100°   Visibility: 6mi
Dew Point: 66°   Wind: 6mph
Humidity: 37%   Direction: 190°S
Pressure: 29.77"   Gusts: NA
Location:  4.26°S, 43.94°W
Report Text: SBTE 281700Z 19005KT 9999 SCT040 36/19 Q1008
Loading
Personal Weather Stations






























Interactive Weather Map New forecast layout! Learn more

10-Day Weather Forecast

Advertisements
Track Severe Weather on mobile